createdAt,value
2023-02-06T00:01:34.493Z,-4.74
2023-02-06T00:04:02.575Z,-4.76
2023-02-06T00:06:30.802Z,-4.76
2023-02-06T00:08:58.770Z,-4.75
2023-02-06T00:11:27.918Z,-4.76
2023-02-06T00:13:55.932Z,-4.79
2023-02-06T00:16:30.585Z,-4.82
2023-02-06T00:18:59.305Z,-4.84
2023-02-06T00:21:27.644Z,-4.85
2023-02-06T00:23:57.703Z,-4.83
2023-02-06T00:26:25.920Z,-4.83
2023-02-06T00:28:54.050Z,-4.82
2023-02-06T00:31:22.115Z,-4.79
2023-02-06T00:33:50.312Z,-4.80
2023-02-06T00:36:18.532Z,-4.81
2023-02-06T00:38:46.666Z,-4.81
2023-02-06T00:41:15.149Z,-4.82
2023-02-06T00:43:43.774Z,-4.84
2023-02-06T00:46:12.030Z,-4.88
2023-02-06T00:48:40.373Z,-4.90
2023-02-06T00:51:08.482Z,-4.90
2023-02-06T00:53:38.941Z,-4.89
2023-02-06T00:56:07.016Z,-4.85
2023-02-06T00:58:35.009Z,-4.81
2023-02-06T01:01:04.297Z,-4.77
2023-02-06T01:03:32.401Z,-4.74
2023-02-06T01:06:00.548Z,-4.72
2023-02-06T01:08:28.520Z,-4.69
2023-02-06T01:10:56.564Z,-4.68
2023-02-06T01:13:24.533Z,-4.70
2023-02-06T01:15:52.572Z,-4.77
2023-02-06T01:18:20.691Z,-4.82
2023-02-06T01:20:48.812Z,-4.86
2023-02-06T01:23:16.901Z,-4.84
2023-02-06T01:25:45.407Z,-4.82
2023-02-06T01:28:13.439Z,-4.79
2023-02-06T01:30:41.537Z,-4.80
2023-02-06T01:33:09.692Z,-4.82
2023-02-06T01:35:38.660Z,-4.81
2023-02-06T01:38:08.753Z,-4.75
2023-02-06T01:40:36.834Z,-4.71
2023-02-06T01:43:08.890Z,-4.69
2023-02-06T01:45:41.829Z,-4.72
2023-02-06T01:48:32.778Z,-4.76
2023-02-06T01:51:00.952Z,-4.78
2023-02-06T01:53:29.076Z,-4.78
2023-02-06T01:55:57.110Z,-4.77
2023-02-06T01:58:32.985Z,-4.73
2023-02-06T02:01:01.069Z,-4.68
2023-02-06T02:03:29.156Z,-4.70
2023-02-06T02:06:00.050Z,-4.73
2023-02-06T02:08:32.514Z,-4.76
2023-02-06T02:11:00.664Z,-4.76
2023-02-06T02:13:28.645Z,-4.73
2023-02-06T02:16:20.260Z,-4.70
2023-02-06T02:19:20.779Z,-4.72
2023-02-06T02:22:01.857Z,-4.78
2023-02-06T02:24:36.155Z,-4.79
2023-02-06T02:27:43.361Z,-4.77
2023-02-06T02:30:23.496Z,-4.77
2023-02-06T02:32:57.562Z,-4.78
2023-02-06T02:35:48.018Z,-4.82
2023-02-06T02:38:31.464Z,-4.86
2023-02-06T02:41:16.068Z,-4.87
2023-02-06T02:43:50.240Z,-4.87
2023-02-06T02:46:43.169Z,-4.86
2023-02-06T02:49:16.985Z,-4.85
2023-02-06T02:51:45.561Z,-4.87
2023-02-06T02:54:13.692Z,-4.92
2023-02-06T02:56:41.729Z,-4.97
2023-02-06T02:59:23.939Z,-4.99
2023-02-06T03:02:04.055Z,-4.99
2023-02-06T03:04:45.210Z,-4.98
2023-02-06T03:07:41.471Z,-4.97
2023-02-06T03:10:31.536Z,-4.99
2023-02-06T03:13:47.896Z,-5.01
2023-02-06T03:16:40.973Z,-4.99
2023-02-06T03:19:39.616Z,-4.95
2023-02-06T03:22:07.592Z,-4.90
2023-02-06T03:24:38.274Z,-4.83
2023-02-06T03:27:14.081Z,-4.77
2023-02-06T03:29:42.083Z,-4.76
2023-02-06T03:32:27.730Z,-4.76
2023-02-06T03:35:07.868Z,-4.76
2023-02-06T03:37:36.229Z,-4.71
2023-02-06T03:40:04.748Z,-4.65
2023-02-06T03:42:33.048Z,-4.57
2023-02-06T03:45:07.035Z,-4.50
2023-02-06T03:47:35.106Z,-4.48
2023-02-06T03:50:03.209Z,-4.50
2023-02-06T03:52:36.171Z,-4.49
2023-02-06T03:55:15.187Z,-4.43
2023-02-06T03:57:44.700Z,-4.36
2023-02-06T04:00:13.418Z,-4.32
2023-02-06T04:02:41.591Z,-4.30
2023-02-06T04:05:09.776Z,-4.30
2023-02-06T04:07:37.942Z,-4.29
2023-02-06T04:10:06.326Z,-4.27
2023-02-06T04:12:34.387Z,-4.23
2023-02-06T04:15:02.555Z,-4.19
2023-02-06T04:17:46.363Z,-4.17
2023-02-06T04:20:18.279Z,-4.20
2023-02-06T04:22:46.339Z,-4.24
2023-02-06T04:25:14.545Z,-4.24
2023-02-06T04:27:42.884Z,-4.20
2023-02-06T04:30:12.020Z,-4.17
2023-02-06T04:32:40.226Z,-4.14
2023-02-06T04:35:08.437Z,-4.09
2023-02-06T04:37:37.925Z,-4.06
2023-02-06T04:40:06.491Z,-4.06
2023-02-06T04:42:34.688Z,-4.07
2023-02-06T04:45:02.675Z,-4.10
2023-02-06T04:47:30.780Z,-4.11
2023-02-06T04:49:58.814Z,-4.09
2023-02-06T04:52:26.832Z,-4.08
2023-02-06T04:54:54.799Z,-4.07
2023-02-06T04:57:23.800Z,-4.08
2023-02-06T04:59:51.957Z,-4.10
2023-02-06T05:02:20.073Z,-4.14
2023-02-06T05:04:48.169Z,-4.20
2023-02-06T05:07:16.300Z,-4.24
2023-02-06T05:09:44.375Z,-4.24
2023-02-06T05:12:14.252Z,-4.22
2023-02-06T05:14:42.429Z,-4.23
2023-02-06T05:17:10.711Z,-4.27
2023-02-06T05:19:38.769Z,-4.29
2023-02-06T05:22:06.804Z,-4.29
2023-02-06T05:24:34.870Z,-4.28
2023-02-06T05:27:02.861Z,-4.27
2023-02-06T05:29:31.282Z,-4.25
2023-02-06T05:31:59.627Z,-4.27
2023-02-06T05:34:27.840Z,-4.29
2023-02-06T05:36:56.050Z,-4.34
2023-02-06T05:39:24.179Z,-4.39
2023-02-06T05:41:52.424Z,-4.43
2023-02-06T05:44:20.628Z,-4.46
2023-02-06T05:46:48.816Z,-4.49
2023-02-06T05:49:17.177Z,-4.52
2023-02-06T05:51:46.372Z,-4.54
2023-02-06T05:54:17.528Z,-4.58
2023-02-06T05:56:45.963Z,-4.67
2023-02-06T05:59:14.434Z,-4.78
2023-02-06T06:01:42.686Z,-4.90
2023-02-06T06:04:11.535Z,-4.99
2023-02-06T06:06:39.642Z,-5.04
2023-02-06T06:09:08.678Z,-5.06
2023-02-06T06:11:37.957Z,-5.08
2023-02-06T06:14:06.304Z,-5.08
2023-02-06T06:16:34.584Z,-5.09
2023-02-06T06:19:02.751Z,-5.11
2023-02-06T06:21:30.876Z,-5.14
2023-02-06T06:23:58.984Z,-5.16
2023-02-06T06:26:27.358Z,-5.13
2023-02-06T06:28:56.737Z,-5.06
2023-02-06T06:31:24.877Z,-4.97
2023-02-06T06:33:54.454Z,-4.91
2023-02-06T06:36:22.690Z,-4.87
2023-02-06T06:38:50.849Z,-4.84
2023-02-06T06:41:18.895Z,-4.80
2023-02-06T06:43:47.087Z,-4.74
2023-02-06T06:46:15.450Z,-4.66
2023-02-06T06:48:43.634Z,-4.56
2023-02-06T06:51:11.908Z,-4.48
2023-02-06T06:53:40.344Z,-4.44
2023-02-06T06:56:10.647Z,-4.38
2023-02-06T06:58:38.774Z,-4.31
2023-02-06T07:01:06.974Z,-4.25
2023-02-06T07:03:35.292Z,-4.14
2023-02-06T07:06:04.521Z,-4.04
2023-02-06T07:08:32.650Z,-3.93
2023-02-06T07:11:00.794Z,-3.83
2023-02-06T07:13:28.879Z,-3.78
2023-02-06T07:15:57.375Z,-3.74
2023-02-06T07:18:25.481Z,-3.67
2023-02-06T07:20:53.737Z,-3.55
2023-02-06T07:23:21.888Z,-3.43
2023-02-06T07:25:50.030Z,-3.31
2023-02-06T07:28:18.376Z,-3.13
2023-02-06T07:30:46.554Z,-2.97
2023-02-06T07:33:14.763Z,-2.86
2023-02-06T07:35:43.666Z,-2.77
2023-02-06T07:38:11.819Z,-2.65
2023-02-06T07:40:44.952Z,-2.55
2023-02-06T07:43:14.240Z,-2.56
2023-02-06T07:45:42.603Z,-2.64
2023-02-06T07:48:10.754Z,-2.73
2023-02-06T07:50:38.960Z,-2.75
2023-02-06T07:53:07.989Z,-2.62
2023-02-06T07:55:38.604Z,-2.49
2023-02-06T07:58:06.984Z,-2.39
2023-02-06T08:00:35.166Z,-2.31
2023-02-06T08:03:05.682Z,-2.28
2023-02-06T08:05:36.577Z,-2.22
2023-02-06T08:08:06.109Z,-2.10
2023-02-06T08:10:34.166Z,-1.96
2023-02-06T08:13:02.365Z,-1.77
2023-02-06T08:15:33.724Z,-1.50
2023-02-06T08:18:02.006Z,-1.28
2023-02-06T08:20:30.311Z,-1.07
2023-02-06T08:22:58.545Z,-0.93
2023-02-06T08:25:26.963Z,-0.77
2023-02-06T08:27:55.350Z,-0.55
2023-02-06T08:30:23.731Z,-0.30
2023-02-06T08:32:52.114Z,-0.03
2023-02-06T08:35:20.156Z,0.16
2023-02-06T08:37:48.508Z,0.24
2023-02-06T08:40:16.706Z,0.29
2023-02-06T08:42:44.907Z,0.32
2023-02-06T08:45:13.112Z,0.31
2023-02-06T08:47:41.674Z,0.42
2023-02-06T08:50:10.188Z,0.49
2023-02-06T08:52:40.534Z,0.54
2023-02-06T08:55:08.864Z,0.65
2023-02-06T08:57:37.294Z,0.70
2023-02-06T09:00:05.902Z,0.76
2023-02-06T09:02:36.147Z,0.85
2023-02-06T09:05:04.954Z,0.85
2023-02-06T09:07:32.965Z,0.77
2023-02-06T09:10:01.133Z,0.80
2023-02-06T09:12:29.232Z,0.84
2023-02-06T09:14:57.330Z,0.87
2023-02-06T09:17:25.602Z,0.92
2023-02-06T09:19:55.493Z,0.93
2023-02-06T09:22:23.653Z,1.08
2023-02-06T09:24:51.834Z,1.44
2023-02-06T09:27:20.048Z,1.76
2023-02-06T09:29:49.042Z,1.92
2023-02-06T09:32:17.476Z,2.12
2023-02-06T09:34:45.948Z,2.24
2023-02-06T09:37:15.154Z,2.41
2023-02-06T09:39:43.129Z,2.47
2023-02-06T09:42:11.168Z,2.56
2023-02-06T09:44:51.509Z,2.72
2023-02-06T09:47:31.295Z,2.70
2023-02-06T09:50:25.644Z,2.76
2023-02-06T09:52:53.827Z,2.77
2023-02-06T09:55:41.198Z,2.78
2023-02-06T09:58:47.308Z,2.80
2023-02-06T10:01:33.549Z,2.75
2023-02-06T10:04:29.185Z,2.53
2023-02-06T10:07:13.477Z,2.37
2023-02-06T10:09:56.330Z,2.06
2023-02-06T10:12:35.604Z,2.12
2023-02-06T10:15:09.177Z,2.24
2023-02-06T10:18:06.196Z,2.72
2023-02-06T10:20:49.516Z,3.41
2023-02-06T10:24:02.812Z,3.56
2023-02-06T10:26:30.981Z,4.09
2023-02-06T10:28:59.252Z,4.55
2023-02-06T10:31:47.962Z,4.92
2023-02-06T10:34:31.699Z,4.39
2023-02-06T10:37:18.523Z,3.86
2023-02-06T10:40:01.874Z,3.77
2023-02-06T10:42:56.804Z,4.72
2023-02-06T10:45:46.710Z,5.16
2023-02-06T10:48:31.894Z,4.66
2023-02-06T10:51:27.831Z,4.85
2023-02-06T10:54:01.965Z,4.80
2023-02-06T10:56:34.044Z,4.77
2023-02-06T10:59:18.229Z,5.32
2023-02-06T11:01:46.544Z,5.89
2023-02-06T11:04:27.821Z,5.65
2023-02-06T11:06:58.332Z,6.00
2023-02-06T11:09:26.276Z,6.18
2023-02-06T11:11:55.373Z,6.37
2023-02-06T11:14:26.689Z,6.43
2023-02-06T11:16:54.786Z,5.56
2023-02-06T11:19:37.603Z,5.04
2023-02-06T11:22:16.427Z,4.73
2023-02-06T11:25:02.572Z,4.22
2023-02-06T11:27:30.802Z,4.35
2023-02-06T11:30:02.505Z,4.74
2023-02-06T11:32:52.800Z,5.36
2023-02-06T11:35:31.061Z,5.88
2023-02-06T11:38:19.973Z,6.13
2023-02-06T11:41:18.035Z,6.43
2023-02-06T11:43:50.544Z,6.71
2023-02-06T11:46:26.339Z,6.78
2023-02-06T11:48:54.349Z,6.69
2023-02-06T11:51:25.573Z,6.56
2023-02-06T11:54:17.878Z,6.52
2023-02-06T11:56:56.382Z,6.70
2023-02-06T11:59:25.452Z,6.51
2023-02-06T12:01:53.655Z,6.54
2023-02-06T12:04:34.359Z,6.76
2023-02-06T12:07:12.679Z,6.93
2023-02-06T12:09:40.598Z,6.76
2023-02-06T12:12:22.860Z,6.99
2023-02-06T12:14:56.063Z,7.10
2023-02-06T12:17:30.956Z,7.24
2023-02-06T12:20:05.339Z,7.69
2023-02-06T12:22:37.101Z,8.13
2023-02-06T12:25:05.312Z,8.22
2023-02-06T12:27:38.886Z,8.23
2023-02-06T12:30:26.179Z,8.19
2023-02-06T12:32:57.580Z,8.03
2023-02-06T12:35:35.956Z,7.80
2023-02-06T12:38:08.134Z,7.53
2023-02-06T12:40:59.658Z,7.29
2023-02-06T12:43:27.653Z,6.92
2023-02-06T12:46:04.557Z,6.48
2023-02-06T12:48:42.238Z,6.32
2023-02-06T12:51:17.297Z,6.18
2023-02-06T12:53:50.719Z,5.48
2023-02-06T12:56:38.864Z,5.60
2023-02-06T12:59:09.738Z,5.56
2023-02-06T13:01:55.983Z,5.28
2023-02-06T13:04:29.854Z,5.27
2023-02-06T13:07:05.227Z,5.46
2023-02-06T13:09:35.628Z,5.55
2023-02-06T13:12:23.395Z,5.57
2023-02-06T13:15:00.053Z,5.57
2023-02-06T13:17:34.430Z,5.54
2023-02-06T13:20:04.674Z,5.05
2023-02-06T13:22:40.657Z,4.63
2023-02-06T13:25:30.844Z,4.75
2023-02-06T13:28:01.296Z,5.04
2023-02-06T13:30:29.511Z,5.09
2023-02-06T13:33:18.124Z,5.01
2023-02-06T13:36:00.831Z,4.79
2023-02-06T13:38:37.132Z,4.66
2023-02-06T13:41:14.321Z,4.38
2023-02-06T13:43:45.039Z,4.19
2023-02-06T13:46:15.246Z,4.14
2023-02-06T13:49:21.014Z,4.16
2023-02-06T13:52:10.006Z,4.36
2023-02-06T13:54:43.971Z,3.96
2023-02-06T13:57:30.762Z,3.57
2023-02-06T14:00:00.175Z,3.40
2023-02-06T14:02:30.393Z,3.66
2023-02-06T14:04:58.555Z,3.88
2023-02-06T14:08:01.044Z,3.90
2023-02-06T14:11:01.847Z,3.96
2023-02-06T14:13:54.402Z,3.77
2023-02-06T14:16:49.633Z,3.53
2023-02-06T14:19:50.193Z,3.47
2023-02-06T14:22:46.225Z,3.32
2023-02-06T14:25:22.305Z,2.89
2023-02-06T14:28:12.809Z,2.59
2023-02-06T14:30:46.717Z,2.29
2023-02-06T14:33:32.940Z,2.09
2023-02-06T14:36:04.560Z,1.88
2023-02-06T14:38:32.523Z,1.60
2023-02-06T14:41:01.974Z,1.36
2023-02-06T14:43:32.689Z,1.13
2023-02-06T14:46:08.308Z,0.91
2023-02-06T14:48:42.866Z,0.68
2023-02-06T14:51:31.662Z,0.49
2023-02-06T14:54:01.846Z,0.29
2023-02-06T14:56:31.935Z,0.10
2023-02-06T14:59:15.997Z,-0.07
2023-02-06T15:01:46.337Z,-0.23
2023-02-06T15:04:19.586Z,-0.37
2023-02-06T15:06:56.035Z,-0.47
2023-02-06T15:09:30.065Z,-0.57
2023-02-06T15:12:00.270Z,-0.64
2023-02-06T15:14:32.226Z,-0.72
2023-02-06T15:17:01.162Z,-0.82
2023-02-06T15:19:31.012Z,-0.93
2023-02-06T15:22:14.358Z,-1.07
2023-02-06T15:24:50.242Z,-1.23
2023-02-06T15:27:26.904Z,-1.31
2023-02-06T15:29:55.017Z,-1.37
2023-02-06T15:32:30.679Z,-1.42
2023-02-06T15:34:59.303Z,-1.52
2023-02-06T15:37:33.323Z,-1.62
2023-02-06T15:40:24.599Z,-1.74
2023-02-06T15:42:52.610Z,-1.89
2023-02-06T15:45:34.658Z,-2.03
2023-02-06T15:48:21.256Z,-2.17
2023-02-06T15:51:00.602Z,-2.30
2023-02-06T15:53:34.779Z,-2.42
2023-02-06T15:56:05.643Z,-2.51
2023-02-06T15:58:34.118Z,-2.59
2023-02-06T16:01:02.283Z,-2.61
2023-02-06T16:03:30.376Z,-2.59
2023-02-06T16:05:58.508Z,-2.60
2023-02-06T16:08:30.172Z,-2.60
2023-02-06T16:11:01.140Z,-2.62
2023-02-06T16:13:29.344Z,-2.66
2023-02-06T16:16:01.874Z,-2.74
2023-02-06T16:18:32.164Z,-2.86
2023-02-06T16:21:15.750Z,-2.98
2023-02-06T16:24:00.264Z,-3.08
2023-02-06T16:26:33.244Z,-3.12
2023-02-06T16:29:10.354Z,-3.15
2023-02-06T16:31:43.377Z,-3.17
2023-02-06T16:34:31.941Z,-3.18
2023-02-06T16:37:00.047Z,-3.25
2023-02-06T16:39:27.930Z,-3.30
2023-02-06T16:41:55.869Z,-3.34
2023-02-06T16:44:36.083Z,-3.36
2023-02-06T16:47:14.151Z,-3.36
2023-02-06T16:49:42.280Z,-3.37
2023-02-06T16:52:16.983Z,-3.39
2023-02-06T16:54:45.109Z,-3.45
2023-02-06T16:57:38.224Z,-3.51
2023-02-06T17:00:09.682Z,-3.59
2023-02-06T17:02:37.793Z,-3.66
2023-02-06T17:05:06.006Z,-3.69
2023-02-06T17:07:35.210Z,-3.72
2023-02-06T17:10:03.783Z,-3.74
2023-02-06T17:12:31.807Z,-3.75
2023-02-06T17:15:00.270Z,-3.74
2023-02-06T17:17:28.445Z,-3.73
2023-02-06T17:19:56.790Z,-3.69
2023-02-06T17:22:24.918Z,-3.71
2023-02-06T17:24:53.244Z,-3.78
2023-02-06T17:27:21.907Z,-3.88
2023-02-06T17:29:50.512Z,-3.95
2023-02-06T17:32:22.326Z,-3.99
2023-02-06T17:34:51.175Z,-4.02
2023-02-06T17:37:21.759Z,-4.06
2023-02-06T17:39:50.493Z,-4.20
2023-02-06T17:42:18.649Z,-4.24
2023-02-06T17:44:46.694Z,-4.30
2023-02-06T17:47:14.773Z,-4.39
2023-02-06T17:49:42.730Z,-4.49
2023-02-06T17:52:10.782Z,-4.57
2023-02-06T17:54:38.713Z,-4.63
2023-02-06T17:57:07.340Z,-4.72
2023-02-06T17:59:35.620Z,-4.79
2023-02-06T18:02:03.580Z,-4.86
2023-02-06T18:04:31.989Z,-4.93
2023-02-06T18:07:00.179Z,-5.01
2023-02-06T18:09:28.353Z,-5.10
2023-02-06T18:11:56.709Z,-5.19
2023-02-06T18:14:24.686Z,-5.26
2023-02-06T18:16:52.754Z,-5.28
2023-02-06T18:19:24.898Z,-5.29
2023-02-06T18:21:52.931Z,-5.28
2023-02-06T18:24:21.219Z,-5.26
2023-02-06T18:26:49.296Z,-5.26
2023-02-06T18:29:17.251Z,-5.30
2023-02-06T18:31:45.239Z,-5.34
2023-02-06T18:34:13.309Z,-5.36
2023-02-06T18:36:41.544Z,-5.34
2023-02-06T18:39:10.382Z,-5.32
2023-02-06T18:41:57.074Z,-5.31
2023-02-06T18:44:25.074Z,-5.31
2023-02-06T18:46:53.088Z,-5.28
2023-02-06T18:49:21.048Z,-5.21
2023-02-06T18:51:49.035Z,-5.07
2023-02-06T18:54:18.404Z,-4.94
2023-02-06T18:56:49.481Z,-4.79
2023-02-06T18:59:17.798Z,-4.62
2023-02-06T19:01:45.843Z,-4.48
2023-02-06T19:04:13.839Z,-4.40
2023-02-06T19:06:43.361Z,-4.28
2023-02-06T19:09:13.424Z,-4.16
2023-02-06T19:11:42.247Z,-4.09
2023-02-06T19:14:12.691Z,-4.06
2023-02-06T19:16:44.578Z,-4.02
2023-02-06T19:19:12.966Z,-3.99
2023-02-06T19:21:41.252Z,-3.98
2023-02-06T19:24:11.883Z,-4.01
2023-02-06T19:26:40.293Z,-4.09
2023-02-06T19:29:08.516Z,-4.18
2023-02-06T19:31:40.986Z,-4.26
2023-02-06T19:34:09.246Z,-4.31
2023-02-06T19:36:37.265Z,-4.36
2023-02-06T19:39:07.382Z,-4.37
2023-02-06T19:41:35.604Z,-4.38
2023-02-06T19:44:08.960Z,-4.41
2023-02-06T19:46:37.175Z,-4.47
2023-02-06T19:49:08.756Z,-4.55
2023-02-06T19:51:40.689Z,-4.62
2023-02-06T19:54:08.750Z,-4.61
2023-02-06T19:56:39.645Z,-4.57
2023-02-06T19:59:17.981Z,-4.47
2023-02-06T20:01:51.049Z,-4.35
2023-02-06T20:04:20.848Z,-4.27
2023-02-06T20:06:51.232Z,-4.25
2023-02-06T20:09:20.343Z,-4.25
2023-02-06T20:11:49.277Z,-4.28
2023-02-06T20:14:17.659Z,-4.35
2023-02-06T20:16:46.359Z,-4.40
2023-02-06T20:19:26.889Z,-4.42
2023-02-06T20:21:56.992Z,-4.45
2023-02-06T20:24:27.848Z,-4.48
2023-02-06T20:27:00.981Z,-4.54
2023-02-06T20:29:33.146Z,-4.67
2023-02-06T20:32:01.563Z,-4.79
2023-02-06T20:34:29.899Z,-4.92
2023-02-06T20:36:58.034Z,-5.05
2023-02-06T20:39:26.553Z,-5.15
2023-02-06T20:41:54.997Z,-5.24
2023-02-06T20:44:25.428Z,-5.29
2023-02-06T20:46:54.403Z,-5.31
2023-02-06T20:49:24.352Z,-5.31
2023-02-06T20:51:52.420Z,-5.36
2023-02-06T20:54:20.771Z,-5.40
2023-02-06T20:56:49.272Z,-5.45
2023-02-06T20:59:18.655Z,-5.51
2023-02-06T21:01:46.755Z,-5.59
2023-02-06T21:04:15.480Z,-5.69
2023-02-06T21:06:44.100Z,-5.76
2023-02-06T21:09:12.196Z,-5.82
2023-02-06T21:11:42.982Z,-5.86
2023-02-06T21:14:11.244Z,-5.92
2023-02-06T21:16:39.524Z,-5.96
2023-02-06T21:19:09.289Z,-6.01
2023-02-06T21:21:37.582Z,-6.04
2023-02-06T21:24:05.843Z,-6.07
2023-02-06T21:26:33.905Z,-6.09
2023-02-06T21:29:02.791Z,-6.16
2023-02-06T21:31:37.574Z,-6.24
2023-02-06T21:34:19.131Z,-6.24
2023-02-06T21:36:48.283Z,-6.20
2023-02-06T21:39:20.091Z,-6.18
2023-02-06T21:41:51.780Z,-6.18
2023-02-06T21:44:26.774Z,-6.18
2023-02-06T21:46:56.243Z,-6.18
2023-02-06T21:49:24.586Z,-6.16
2023-02-06T21:51:53.347Z,-6.18
2023-02-06T21:54:22.062Z,-6.17
2023-02-06T21:56:50.198Z,-6.13
2023-02-06T21:59:18.228Z,-6.02
2023-02-06T22:01:46.374Z,-5.86
2023-02-06T22:04:14.388Z,-5.69
2023-02-06T22:06:42.319Z,-5.56
2023-02-06T22:09:15.289Z,-5.47
2023-02-06T22:11:43.525Z,-5.42
2023-02-06T22:14:13.555Z,-5.39
2023-02-06T22:16:41.877Z,-5.33
2023-02-06T22:19:10.554Z,-5.21
2023-02-06T22:21:39.990Z,-5.10
2023-02-06T22:24:08.949Z,-5.02
2023-02-06T22:26:38.872Z,-4.97
2023-02-06T22:29:08.419Z,-4.95
2023-02-06T22:31:36.693Z,-4.91
2023-02-06T22:34:04.678Z,-4.82
2023-02-06T22:36:33.194Z,-4.72
2023-02-06T22:39:03.608Z,-4.64
2023-02-06T22:41:32.195Z,-4.60
2023-02-06T22:44:00.621Z,-4.57
2023-02-06T22:46:31.313Z,-4.54
2023-02-06T22:49:00.088Z,-4.48
2023-02-06T22:51:28.321Z,-4.36
2023-02-06T22:53:56.869Z,-4.26
2023-02-06T22:56:31.864Z,-4.19
2023-02-06T22:59:02.423Z,-4.18
2023-02-06T23:01:35.974Z,-4.17
2023-02-06T23:04:05.448Z,-4.15
2023-02-06T23:06:34.699Z,-4.09
2023-02-06T23:09:03.843Z,-4.02
2023-02-06T23:11:32.041Z,-3.96
2023-02-06T23:14:02.317Z,-3.95
2023-02-06T23:16:32.404Z,-3.94
2023-02-06T23:19:11.123Z,-3.91
2023-02-06T23:21:40.397Z,-3.86
2023-02-06T23:24:09.525Z,-3.79
2023-02-06T23:26:37.971Z,-3.73
2023-02-06T23:29:07.020Z,-3.63
2023-02-06T23:31:35.576Z,-3.61
2023-02-06T23:34:04.150Z,-3.59
2023-02-06T23:36:32.206Z,-3.59
2023-02-06T23:39:02.426Z,-3.56
2023-02-06T23:41:30.977Z,-3.53
2023-02-06T23:44:01.304Z,-3.52
2023-02-06T23:46:30.510Z,-3.54
2023-02-06T23:48:58.617Z,-3.55
2023-02-06T23:51:29.455Z,-3.51
2023-02-06T23:53:58.126Z,-3.43
2023-02-06T23:56:28.248Z,-3.35
2023-02-06T23:58:58.928Z,-3.30
